Hub


Voltar

 INFORMAÇÕES METEOROLÓGICAS

METAR FOR GCHI


ADDS - METARS form results

(2316 UTC 17 February 2019)
Data provider http://aviationweather.gov/metar/data/
 
METAR text: GCHI 172300Z AUTO 01010KT 340V040 9999 FEW023/// SCT032/// BKN038/// 18/14 Q1023
Conditions at: GCHI (HIERRO AIRPORT , ES) observed 2300 UTC 17 February 2019
Temperature: 18.0°C (64°F)
Dewpoint: 14.0°C (57°F) [RH = 77%]
Pressure (altimeter): 30.21 inches Hg (1023.0 mb)
Winds: from the N (10 degrees) at 12 MPH (10 knots; 5.1 m/s)
Visibility: 6 or more miles (10+ km)
Ceiling: 3800 feet AGL
Clouds: few clouds at 2300 feet AGL
scattered clouds at 3200 feet AGL
broken clouds at 3800 feet AGL
Weather: no significant weather observed at this time

METAR text: GCHI 172230Z AUTO 36011KT 9999 SCT024/// SCT033/// 18/14 Q1023
Conditions at: GCHI (HIERRO AIRPORT , ES) observed 2230 UTC 17 February 2019
Temperature: 18.0°C (64°F)
Dewpoint: 14.0°C (57°F) [RH = 77%]
Pressure (altimeter): 30.21 inches Hg (1023.0 mb)
Winds: from the N (360 degrees) at 13 MPH (11 knots; 5.7 m/s)
Visibility: 6 or more miles (10+ km)
Ceiling: at least 12,000 feet AGL
Clouds: scattered clouds at 2400 feet AGL
scattered clouds at 3300 feet AGL
Weather: no significant weather observed at this time

Forecast for: GCHI (HIERRO AIRPORT , ES)
Text: TAF GCHI 172000Z 1721/1821 35011KT 9999 FEW025 TX20/1814Z TN17/1806Z
Forecast period: 2100 UTC 17 February 2019 to 2100 UTC 18 February 2019
Forecast type: FROM: standard forecast or significant change
Winds: from the N (350 degrees) at 13 MPH (11 knots; 5.7 m/s)
Visibility: 6 or more miles 10+ km)
Ceiling: at least 12,000 feet AGL
Clouds: few clouds at 2500 feet AGL
Weather: no significant weather forecast for this period
Text: PROB40
Forecast period: 0700 to 1200 UTC 18 February 2019
Forecast type: TEMPORARY: The following changes expected for less than half the time period
Visibility: missing
Ceiling: unknown
Clouds: missing
Weather: RA  (moderate rain)


 MAPA DO AEROPORTO


 INFORMAÇÕES DA PISTA

Pista 16 Tamanho da pista 4101 ft Largura da pista 98 ft
Elevação da pista 71 ft Ranhura da pista 0 ft Proa da pista 153
Pista 34 Tamanho da pista 4101 ft Largura da pista 98 ft
Elevação da pista 103 ft Ranhura da pista 0 ft Proa da pista 333

 FREQUÊNCIAS DO AEROPORTO

Tipo A/D Nome CANARIAS A Frequência 126.1 MHZ
Tipo GND Nome GND Frequência 121.6 MHZ
Tipo TWR Nome TWR Frequência 118.1 MHZ

 AUXÍLIOS DE NAVEGAÇÃO PRÓXIMOS AO AEROPORTO

Tipo NDB Nome Hierro Frequência 376 KHZ
Tipo DME Nome Hierro Frequência 113200 KHZ